createdAt,value
2024-03-02T09:01:38.344Z,0.50
2024-03-02T09:02:15.767Z,0.50
2024-03-02T09:03:15.741Z,0.50
2024-03-02T09:04:15.758Z,0.50
2024-03-02T09:05:15.760Z,0.50
2024-03-02T09:06:15.826Z,0.50
2024-03-02T09:07:15.775Z,0.42
2024-03-02T09:08:15.774Z,0.34
2024-03-02T09:09:15.760Z,0.30
2024-03-02T09:10:15.764Z,0.28
2024-03-02T09:11:15.779Z,0.27
2024-03-02T09:12:15.754Z,0.27
2024-03-02T09:13:15.757Z,0.28
2024-03-02T09:14:15.783Z,0.30
2024-03-02T09:15:15.769Z,0.32
2024-03-02T09:16:15.864Z,0.35
2024-03-02T09:17:15.812Z,0.38
2024-03-02T09:18:15.803Z,0.43
2024-03-02T09:19:15.816Z,0.48
2024-03-02T09:20:15.793Z,0.50
2024-03-02T09:21:15.854Z,0.50
2024-03-02T09:22:15.870Z,0.50
2024-03-02T09:23:15.899Z,0.50
2024-03-02T09:24:17.731Z,0.51
2024-03-02T09:25:15.938Z,0.50
2024-03-02T09:26:15.948Z,0.50
2024-03-02T09:27:15.970Z,0.50
2024-03-02T09:28:15.929Z,0.50
2024-03-02T09:29:15.953Z,0.50
2024-03-02T09:30:23.274Z,0.50
2024-03-02T09:31:23.267Z,0.50
2024-03-02T09:32:23.242Z,0.50
2024-03-02T09:33:23.326Z,0.50
2024-03-02T09:34:23.278Z,0.50
2024-03-02T09:35:23.259Z,0.51
2024-03-02T09:36:23.355Z,0.50
2024-03-02T09:37:23.268Z,0.50
2024-03-02T09:38:23.294Z,0.50
2024-03-02T09:39:23.344Z,0.50
2024-03-02T09:40:23.264Z,0.51
2024-03-02T09:41:23.286Z,0.51
2024-03-02T09:42:24.750Z,0.50
2024-03-02T09:43:23.267Z,0.50
2024-03-02T09:44:23.277Z,0.51
2024-03-02T09:45:23.329Z,0.51
2024-03-02T09:46:23.270Z,0.50
2024-03-02T09:47:23.285Z,0.51
2024-03-02T09:48:23.313Z,0.50
2024-03-02T09:49:23.265Z,0.51
2024-03-02T09:50:23.317Z,0.50
2024-03-02T09:51:23.314Z,0.52
2024-03-02T09:52:23.270Z,0.50
2024-03-02T09:53:23.298Z,0.51
2024-03-02T09:54:23.754Z,0.51
2024-03-02T09:55:23.315Z,0.51
2024-03-02T09:56:23.308Z,0.52
2024-03-02T09:57:23.297Z,0.50
2024-03-02T09:58:23.305Z,0.50
2024-03-02T09:59:23.315Z,0.51
2024-03-02T10:00:23.306Z,0.50
2024-03-02T10:01:23.403Z,0.50
2024-03-02T10:02:23.389Z,0.51
2024-03-02T10:03:23.300Z,0.51
2024-03-02T10:04:23.304Z,0.50
2024-03-02T10:05:23.295Z,0.50
2024-03-02T10:06:23.355Z,0.51
2024-03-02T10:07:23.293Z,0.51
2024-03-02T10:08:23.299Z,0.52
2024-03-02T10:09:23.318Z,0.50
2024-03-02T10:10:24.238Z,0.51
2024-03-02T10:11:23.361Z,0.51
2024-03-02T10:12:23.354Z,0.50
2024-03-02T10:13:23.305Z,0.50
2024-03-02T10:14:23.314Z,0.51
2024-03-02T10:15:23.345Z,0.50
2024-03-02T10:16:23.305Z,0.50
2024-03-02T10:17:23.319Z,0.51
2024-03-02T10:18:23.336Z,0.51
2024-03-02T10:19:23.309Z,0.51
2024-03-02T10:20:23.321Z,0.51
2024-03-02T10:21:23.354Z,0.50
2024-03-02T10:22:23.326Z,0.50
2024-03-02T10:23:23.353Z,0.51
2024-03-02T10:24:23.324Z,0.50
2024-03-02T10:25:36.585Z,0.51
2024-03-02T10:26:24.344Z,0.51
2024-03-02T10:27:23.390Z,0.51
2024-03-02T10:28:23.387Z,0.50
2024-03-02T10:29:23.354Z,0.51
2024-03-02T10:30:23.360Z,0.51
2024-03-02T10:31:23.352Z,0.50
2024-03-02T10:32:23.363Z,0.50
2024-03-02T10:33:23.395Z,0.50
2024-03-02T10:34:23.356Z,0.52
2024-03-02T10:35:23.473Z,0.50
2024-03-02T10:36:23.372Z,0.51
2024-03-02T10:37:23.368Z,0.50
2024-03-02T10:38:23.369Z,0.51
2024-03-02T10:39:23.381Z,0.51
2024-03-02T10:40:23.371Z,0.51
2024-03-02T10:41:23.401Z,0.50
2024-03-02T10:42:23.373Z,0.52
2024-03-02T10:43:23.371Z,0.51
2024-03-02T10:44:23.388Z,0.51
2024-03-02T10:45:23.382Z,0.51
2024-03-02T10:46:23.382Z,0.51
2024-03-02T10:47:23.390Z,0.51
2024-03-02T10:48:23.387Z,0.50
2024-03-02T10:49:23.346Z,0.51
2024-03-02T10:50:23.353Z,0.51
2024-03-02T10:51:23.394Z,0.52
2024-03-02T10:52:23.368Z,0.50
2024-03-02T10:53:23.389Z,0.51
2024-03-02T10:54:23.391Z,0.51
2024-03-02T10:55:23.599Z,0.51
2024-03-02T10:56:23.382Z,0.52
2024-03-02T10:57:23.370Z,0.52
2024-03-02T10:58:23.442Z,0.51
2024-03-02T10:59:23.372Z,0.51
2024-03-02T11:00:23.383Z,0.51
2024-03-02T11:01:23.496Z,0.50
2024-03-02T11:02:23.363Z,0.52
2024-03-02T11:03:23.392Z,0.51
2024-03-02T11:04:23.456Z,0.51
2024-03-02T11:05:23.359Z,0.52
2024-03-02T11:06:23.360Z,0.52
2024-03-02T11:07:23.408Z,0.51
2024-03-02T11:08:23.402Z,0.52
2024-03-02T11:09:23.413Z,0.52
2024-03-02T11:10:23.416Z,0.52
2024-03-02T11:11:23.450Z,0.52
2024-03-02T11:12:23.462Z,0.51
2024-03-02T11:13:23.435Z,0.51
2024-03-02T11:14:23.412Z,0.51
2024-03-02T11:15:23.537Z,0.51
2024-03-02T11:16:23.490Z,0.51
2024-03-02T11:17:23.521Z,0.52
2024-03-02T11:18:23.632Z,0.52
2024-03-02T11:19:23.633Z,0.52
2024-03-02T11:20:23.588Z,0.52
2024-03-02T11:21:23.658Z,0.52
2024-03-02T11:22:23.671Z,0.52
2024-03-02T11:23:23.701Z,0.52
2024-03-02T11:24:23.841Z,0.52
2024-03-02T11:25:23.919Z,0.51
2024-03-02T11:26:23.856Z,0.52
2024-03-02T11:27:23.938Z,0.51
2024-03-02T11:28:24.006Z,0.51
2024-03-02T11:29:24.056Z,0.52
2024-03-02T11:30:24.218Z,0.52
2024-03-02T11:31:24.186Z,0.52
2024-03-02T11:32:24.239Z,0.52
2024-03-02T11:33:24.406Z,0.52
2024-03-02T11:34:24.398Z,0.52
2024-03-02T11:35:24.495Z,0.52
2024-03-02T11:36:24.563Z,0.52
2024-03-02T11:37:24.586Z,0.52
2024-03-02T11:38:24.698Z,0.54
2024-03-02T11:39:24.750Z,0.52
2024-03-02T11:40:24.814Z,0.52
2024-03-02T11:41:24.861Z,0.53
2024-03-02T11:42:24.906Z,0.54
2024-03-02T11:43:24.976Z,0.53
2024-03-02T11:44:25.038Z,0.53
2024-03-02T11:45:25.139Z,0.54
2024-03-02T11:46:25.140Z,0.54
2024-03-02T11:47:25.238Z,0.53
2024-03-02T11:48:25.285Z,0.52
2024-03-02T11:49:25.322Z,0.52
2024-03-02T11:50:25.457Z,0.53
2024-03-02T11:51:25.435Z,0.53
2024-03-02T11:52:25.455Z,0.52
2024-03-02T11:53:25.518Z,0.52
2024-03-02T11:54:25.572Z,0.52
2024-03-02T11:55:25.578Z,0.52
2024-03-02T11:56:25.620Z,0.53
2024-03-02T11:57:25.770Z,0.53
2024-03-02T11:58:25.728Z,0.53
2024-03-02T11:59:25.752Z,0.53
2024-03-02T12:00:25.886Z,0.52
2024-03-02T12:01:25.968Z,0.51
2024-03-02T12:02:25.885Z,0.51
2024-03-02T12:03:25.936Z,0.51
2024-03-02T12:04:25.928Z,0.52
2024-03-02T12:05:25.931Z,0.51
2024-03-02T12:06:26.016Z,0.53
2024-03-02T12:07:25.987Z,0.50
2024-03-02T12:08:26.018Z,0.52
2024-03-02T12:09:26.089Z,0.51
2024-03-02T12:10:26.141Z,0.52
2024-03-02T12:11:26.070Z,0.51
2024-03-02T12:12:26.106Z,0.52
2024-03-02T12:13:26.079Z,0.52
2024-03-02T12:14:26.129Z,0.51
2024-03-02T12:15:26.111Z,0.52
2024-03-02T12:16:26.130Z,0.51
2024-03-02T12:17:26.135Z,0.52
2024-03-02T12:18:26.196Z,0.52
2024-03-02T12:19:26.116Z,0.52
2024-03-02T12:20:26.149Z,0.52
2024-03-02T12:21:26.186Z,0.52
2024-03-02T12:22:26.201Z,0.52
2024-03-02T12:23:26.254Z,0.52
2024-03-02T12:24:26.268Z,0.51
2024-03-02T12:25:26.320Z,0.52
2024-03-02T12:26:26.350Z,0.52
2024-03-02T12:27:26.401Z,0.52
2024-03-02T12:28:26.455Z,0.52
2024-03-02T12:29:26.489Z,0.52
2024-03-02T12:30:26.582Z,0.52
2024-03-02T12:31:26.621Z,0.52
2024-03-02T12:32:26.691Z,0.51
2024-03-02T12:33:26.779Z,0.53
2024-03-02T12:34:26.956Z,0.53
2024-03-02T12:35:26.929Z,0.52
2024-03-02T12:36:27.039Z,0.52
2024-03-02T12:37:27.024Z,0.52
2024-03-02T12:38:27.082Z,0.52
2024-03-02T12:39:27.204Z,0.52
2024-03-02T12:40:27.180Z,0.52
2024-03-02T12:41:29.452Z,0.53
2024-03-02T12:42:27.297Z,0.52
2024-03-02T12:43:27.353Z,0.53
2024-03-02T12:44:27.443Z,0.52
2024-03-02T12:45:27.530Z,0.53
2024-03-02T12:46:27.509Z,0.52
2024-03-02T12:47:27.576Z,0.52
2024-03-02T12:48:27.648Z,0.51
2024-03-02T12:49:27.629Z,0.52
2024-03-02T12:50:27.751Z,0.52
2024-03-02T12:51:27.751Z,0.52
2024-03-02T12:52:27.777Z,0.52
2024-03-02T12:53:27.797Z,0.53
2024-03-02T12:54:27.848Z,0.53
2024-03-02T12:55:27.868Z,0.52
2024-03-02T12:56:27.914Z,0.53
2024-03-02T12:57:27.935Z,0.53
2024-03-02T12:58:28.004Z,0.53
2024-03-02T12:59:28.152Z,0.53
2024-03-02T13:00:28.080Z,0.53
2024-03-02T13:01:28.135Z,0.53
2024-03-02T13:02:28.033Z,0.53
2024-03-02T13:03:28.052Z,0.52
2024-03-02T13:04:28.078Z,0.53
2024-03-02T13:05:28.084Z,0.52
2024-03-02T13:06:28.140Z,0.53
2024-03-02T13:07:28.118Z,0.54
2024-03-02T13:08:28.115Z,0.53
2024-03-02T13:09:28.124Z,0.52
2024-03-02T13:10:28.229Z,0.54
2024-03-02T13:11:28.179Z,0.52
2024-03-02T13:12:28.166Z,0.52
2024-03-02T13:13:28.139Z,0.52
2024-03-02T13:14:28.153Z,0.52
2024-03-02T13:15:28.282Z,0.53
2024-03-02T13:16:32.821Z,0.52
2024-03-02T13:17:32.644Z,0.52
2024-03-02T13:18:29.293Z,0.52
2024-03-02T13:19:28.242Z,0.52
2024-03-02T13:20:28.274Z,0.52
2024-03-02T13:21:28.281Z,0.53
2024-03-02T13:22:28.204Z,0.54
2024-03-02T13:23:28.232Z,0.53
2024-03-02T13:24:28.221Z,0.53
2024-03-02T13:25:30.112Z,0.52
2024-03-02T13:26:28.243Z,0.52
2024-03-02T13:27:28.300Z,0.52
2024-03-02T13:28:28.303Z,0.53
2024-03-02T13:29:28.337Z,0.53
2024-03-02T13:30:28.444Z,0.54
2024-03-02T13:31:28.422Z,0.53
2024-03-02T13:32:28.530Z,0.53
2024-03-02T13:33:28.572Z,0.54
2024-03-02T13:34:28.575Z,0.51
2024-03-02T13:35:28.637Z,0.53
2024-03-02T13:36:28.718Z,0.53
2024-03-02T13:37:28.759Z,0.53
2024-03-02T13:38:28.823Z,0.53
2024-03-02T13:39:28.917Z,0.53
2024-03-02T13:40:28.985Z,0.53
2024-03-02T13:41:29.022Z,0.54
2024-03-02T13:43:29.171Z,0.54
2024-03-02T13:44:29.250Z,0.53
2024-03-02T13:45:29.318Z,0.52
2024-03-02T13:46:29.402Z,0.53
2024-03-02T13:47:29.440Z,0.53
2024-03-02T13:48:29.555Z,0.52
2024-03-02T13:49:29.577Z,0.53
2024-03-02T13:50:29.713Z,0.53
2024-03-02T13:51:29.767Z,0.52
2024-03-02T13:52:29.786Z,0.53
2024-03-02T13:53:29.884Z,0.53
2024-03-02T13:54:29.952Z,0.53
2024-03-02T13:55:30.022Z,0.54
2024-03-02T13:56:30.061Z,0.54
2024-03-02T13:57:30.163Z,0.54
2024-03-02T13:58:30.230Z,0.53
2024-03-02T13:59:30.291Z,0.54
2024-03-02T14:00:30.360Z,0.53
